sensor_id;sensor_type;location;lat;lon;timestamp;P1;P2;P0
35654;PMS1003;21773;50.010;19.972;2023-03-01T00:02:39;52.50;41.50;31.25
35654;PMS1003;21773;50.010;19.972;2023-03-01T00:05:44;52.60;42.60;32.00
35654;PMS1003;21773;50.010;19.972;2023-03-01T00:08:49;52.00;42.80;32.00
35654;PMS1003;21773;50.010;19.972;2023-03-01T00:11:52;53.60;42.00;31.00
35654;PMS1003;21773;50.010;19.972;2023-03-01T00:14:56;52.50;43.00;33.00
35654;PMS1003;21773;50.010;19.972;2023-03-01T00:17:59;54.40;44.00;33.00
35654;PMS1003;21773;50.010;19.972;2023-03-01T00:21:02;55.00;44.00;33.00
35654;PMS1003;21773;50.010;19.972;2023-03-01T00:24:08;57.00;44.00;32.50
35654;PMS1003;21773;50.010;19.972;2023-03-01T00:27:12;55.60;44.20;33.60
35654;PMS1003;21773;50.010;19.972;2023-03-01T00:30:15;58.20;46.40;34.00
35654;PMS1003;21773;50.010;19.972;2023-03-01T00:33:19;60.00;48.00;37.00
35654;PMS1003;21773;50.010;19.972;2023-03-01T00:36:23;59.80;47.60;36.20
35654;PMS1003;21773;50.010;19.972;2023-03-01T00:39:29;57.00;47.00;36.00
35654;PMS1003;21773;50.010;19.972;2023-03-01T00:42:33;56.40;45.40;34.00
35654;PMS1003;21773;50.010;19.972;2023-03-01T00:45:36;56.60;45.60;34.00
35654;PMS1003;21773;50.010;19.972;2023-03-01T00:48:40;59.40;47.00;35.40
35654;PMS1003;21773;50.010;19.972;2023-03-01T00:51:43;60.00;48.00;37.00
35654;PMS1003;21773;50.010;19.972;2023-03-01T00:54:48;54.00;44.00;33.00
35654;PMS1003;21773;50.010;19.972;2023-03-01T00:57:51;58.00;46.00;34.33
35654;PMS1003;21773;50.010;19.972;2023-03-01T01:00:54;58.00;46.40;34.60
35654;PMS1003;21773;50.010;19.972;2023-03-01T01:03:58;57.20;45.20;33.80
35654;PMS1003;21773;50.010;19.972;2023-03-01T01:07:03;62.20;49.20;38.20
35654;PMS1003;21773;50.010;19.972;2023-03-01T01:10:09;61.40;48.00;35.00
35654;PMS1003;21773;50.010;19.972;2023-03-01T01:13:18;64.60;48.00;37.00
35654;PMS1003;21773;50.010;19.972;2023-03-01T01:16:23;62.00;48.00;35.33
35654;PMS1003;21773;50.010;19.972;2023-03-01T01:19:28;67.00;52.60;43.60
35654;PMS1003;21773;50.010;19.972;2023-03-01T01:22:31;62.40;49.60;37.20
35654;PMS1003;21773;50.010;19.972;2023-03-01T01:25:36;65.00;50.60;40.60
35654;PMS1003;21773;50.010;19.972;2023-03-01T01:28:40;62.40;49.40;37.00
35654;PMS1003;21773;50.010;19.972;2023-03-01T01:31:43;62.00;49.00;38.00
35654;PMS1003;21773;50.010;19.972;2023-03-01T01:34:47;61.50;49.50;37.50
35654;PMS1003;21773;50.010;19.972;2023-03-01T01:37:50;62.40;48.40;37.80
35654;PMS1003;21773;50.010;19.972;2023-03-01T01:40:55;62.60;48.40;38.00
35654;PMS1003;21773;50.010;19.972;2023-03-01T01:44:10;63.25;49.00;38.25
35654;PMS1003;21773;50.010;19.972;2023-03-01T01:47:16;63.00;50.00;39.60
35654;PMS1003;21773;50.010;19.972;2023-03-01T01:50:23;61.00;48.00;37.00
35654;PMS1003;21773;50.010;19.972;2023-03-01T01:53:26;62.60;49.00;37.00
35654;PMS1003;21773;50.010;19.972;2023-03-01T01:56:32;65.00;49.60;38.60
35654;PMS1003;21773;50.010;19.972;2023-03-01T01:59:35;74.60;60.60;50.60
35654;PMS1003;21773;50.010;19.972;2023-03-01T02:02:41;75.75;62.25;49.75
35654;PMS1003;21773;50.010;19.972;2023-03-01T02:05:47;113.60;100.40;81.00
35654;PMS1003;21773;50.010;19.972;2023-03-01T02:08:57;89.80;77.00;64.40
35654;PMS1003;21773;50.010;19.972;2023-03-01T02:12:05;92.60;83.40;69.00
35654;PMS1003;21773;50.010;19.972;2023-03-01T02:15:09;89.00;78.40;65.00
35654;PMS1003;21773;50.010;19.972;2023-03-01T02:18:14;83.60;72.20;58.80
35654;PMS1003;21773;50.010;19.972;2023-03-01T02:21:25;79.25;68.25;57.25
35654;PMS1003;21773;50.010;19.972;2023-03-01T02:24:38;78.80;68.80;54.00
35654;PMS1003;21773;50.010;19.972;2023-03-01T02:27:51;77.00;63.20;50.20
35654;PMS1003;21773;50.010;19.972;2023-03-01T02:31:02;76.00;62.00;52.00
35654;PMS1003;21773;50.010;19.972;2023-03-01T02:34:24;73.80;59.80;48.60
35654;PMS1003;21773;50.010;19.972;2023-03-01T02:37:28;72.00;56.80;46.80
35654;PMS1003;21773;50.010;19.972;2023-03-01T02:40:32;72.25;57.50;47.50
35654;PMS1003;21773;50.010;19.972;2023-03-01T02:43:37;75.00;61.40;53.20
35654;PMS1003;21773;50.010;19.972;2023-03-01T02:46:46;72.00;55.80;47.00
35654;PMS1003;21773;50.010;19.972;2023-03-01T02:49:50;72.00;58.60;48.00
35654;PMS1003;21773;50.010;19.972;2023-03-01T02:52:55;70.00;53.00;46.60
35654;PMS1003;21773;50.010;19.972;2023-03-01T02:56:03;68.60;54.00;45.00
35654;PMS1003;21773;50.010;19.972;2023-03-01T02:59:07;71.00;55.60;45.00
35654;PMS1003;21773;50.010;19.972;2023-03-01T03:02:20;69.50;52.00;42.00
35654;PMS1003;21773;50.010;19.972;2023-03-01T03:05:47;72.00;55.00;47.00
35654;PMS1003;21773;50.010;19.972;2023-03-01T03:08:51;66.80;51.00;40.80
35654;PMS1003;21773;50.010;19.972;2023-03-01T03:11:54;66.00;51.00;42.00
35654;PMS1003;21773;50.010;19.972;2023-03-01T03:14:57;63.00;50.00;39.80
35654;PMS1003;21773;50.010;19.972;2023-03-01T03:18:03;64.50;51.00;41.00
35654;PMS1003;21773;50.010;19.972;2023-03-01T03:21:08;64.60;50.80;40.40
35654;PMS1003;21773;50.010;19.972;2023-03-01T03:24:12;63.60;50.00;39.60
35654;PMS1003;21773;50.010;19.972;2023-03-01T03:27:16;69.40;53.40;45.00
35654;PMS1003;21773;50.010;19.972;2023-03-01T03:30:19;66.00;51.00;40.60
35654;PMS1003;21773;50.010;19.972;2023-03-01T03:33:24;63.00;48.50;36.50
35654;PMS1003;21773;50.010;19.972;2023-03-01T03:36:27;64.25;50.25;40.25
35654;PMS1003;21773;50.010;19.972;2023-03-01T03:39:31;63.67;50.33;41.00
35654;PMS1003;21773;50.010;19.972;2023-03-01T03:42:36;62.00;50.00;39.20
35654;PMS1003;21773;50.010;19.972;2023-03-01T03:45:39;63.00;48.80;36.60
35654;PMS1003;21773;50.010;19.972;2023-03-01T03:48:45;61.50;48.00;38.50
35654;PMS1003;21773;50.010;19.972;2023-03-01T03:51:48;62.25;49.25;38.50
35654;PMS1003;21773;50.010;19.972;2023-03-01T03:54:52;61.60;48.00;37.00
35654;PMS1003;21773;50.010;19.972;2023-03-01T03:57:56;63.25;48.75;37.75
35654;PMS1003;21773;50.010;19.972;2023-03-01T04:01:04;60.40;48.00;36.60
35654;PMS1003;21773;50.010;19.972;2023-03-01T04:04:09;63.40;49.00;39.00
35654;PMS1003;21773;50.010;19.972;2023-03-01T04:07:12;62.60;50.20;40.00
35654;PMS1003;21773;50.010;19.972;2023-03-01T04:10:16;63.00;48.00;36.80
35654;PMS1003;21773;50.010;19.972;2023-03-01T04:13:21;61.50;48.00;36.75
35654;PMS1003;21773;50.010;19.972;2023-03-01T04:16:26;61.00;50.00;38.00
35654;PMS1003;21773;50.010;19.972;2023-03-01T04:19:32;67.00;51.60;42.60
35654;PMS1003;21773;50.010;19.972;2023-03-01T04:22:37;62.60;50.40;39.40
35654;PMS1003;21773;50.010;19.972;2023-03-01T04:25:42;64.00;50.00;41.00
35654;PMS1003;21773;50.010;19.972;2023-03-01T04:28:51;62.25;50.75;40.25
35654;PMS1003;21773;50.010;19.972;2023-03-01T04:31:54;63.25;50.00;40.00
35654;PMS1003;21773;50.010;19.972;2023-03-01T04:34:59;60.60;45.80;34.00
35654;PMS1003;21773;50.010;19.972;2023-03-01T04:38:03;65.25;51.00;41.25
35654;PMS1003;21773;50.010;19.972;2023-03-01T04:41:08;63.00;50.40;41.20
35654;PMS1003;21773;50.010;19.972;2023-03-01T04:44:13;65.60;51.60;41.80
35654;PMS1003;21773;50.010;19.972;2023-03-01T04:47:16;62.20;48.80;38.40
35654;PMS1003;21773;50.010;19.972;2023-03-01T04:50:21;65.50;51.00;42.50
35654;PMS1003;21773;50.010;19.972;2023-03-01T04:53:25;64.00;50.60;41.00
35654;PMS1003;21773;50.010;19.972;2023-03-01T04:56:29;66.50;52.00;42.75
35654;PMS1003;21773;50.010;19.972;2023-03-01T04:59:33;64.00;50.00;40.00
35654;PMS1003;21773;50.010;19.972;2023-03-01T05:02:37;66.00;51.00;42.00
35654;PMS1003;21773;50.010;19.972;2023-03-01T05:05:42;62.25;49.75;39.00
35654;PMS1003;21773;50.010;19.972;2023-03-01T05:08:45;63.60;50.00;38.40
35654;PMS1003;21773;50.010;19.972;2023-03-01T05:11:49;65.75;51.00;41.00
35654;PMS1003;21773;50.010;19.972;2023-03-01T05:14:53;65.20;51.60;41.80
35654;PMS1003;21773;50.010;19.972;2023-03-01T05:17:57;67.00;52.40;45.00
35654;PMS1003;21773;50.010;19.972;2023-03-01T05:21:04;65.80;51.00;41.80
35654;PMS1003;21773;50.010;19.972;2023-03-01T05:24:09;64.20;50.60;40.60
35654;PMS1003;21773;50.010;19.972;2023-03-01T05:27:13;66.20;50.80;40.40
35654;PMS1003;21773;50.010;19.972;2023-03-01T05:30:17;67.00;51.75;42.00
35654;PMS1003;21773;50.010;19.972;2023-03-01T05:33:21;67.40;52.00;43.00
35654;PMS1003;21773;50.010;19.972;2023-03-01T05:36:25;64.60;50.00;40.00
35654;PMS1003;21773;50.010;19.972;2023-03-01T05:39:29;61.60;49.00;37.80
35654;PMS1003;21773;50.010;19.972;2023-03-01T05:42:33;64.00;49.80;38.00
35654;PMS1003;21773;50.010;19.972;2023-03-01T05:45:37;66.50;52.50;43.50
35654;PMS1003;21773;50.010;19.972;2023-03-01T05:48:42;65.60;51.40;39.80
35654;PMS1003;21773;50.010;19.972;2023-03-01T05:51:48;62.50;50.00;38.00
35654;PMS1003;21773;50.010;19.972;2023-03-01T05:54:53;66.60;51.60;42.20
35654;PMS1003;21773;50.010;19.972;2023-03-01T05:57:57;64.60;50.00;39.80
35654;PMS1003;21773;50.010;19.972;2023-03-01T06:01:01;68.40;52.00;43.40
35654;PMS1003;21773;50.010;19.972;2023-03-01T06:04:05;67.00;53.00;43.20
35654;PMS1003;21773;50.010;19.972;2023-03-01T06:07:10;70.20;54.60;47.40
35654;PMS1003;21773;50.010;19.972;2023-03-01T06:10:13;69.40;52.00;43.40
35654;PMS1003;21773;50.010;19.972;2023-03-01T06:13:17;64.60;50.00;37.60
35654;PMS1003;21773;50.010;19.972;2023-03-01T06:16:21;66.60;53.00;44.60
35654;PMS1003;21773;50.010;19.972;2023-03-01T06:19:24;67.40;53.00;45.00
35654;PMS1003;21773;50.010;19.972;2023-03-01T06:22:29;67.60;54.00;45.00
35654;PMS1003;21773;50.010;19.972;2023-03-01T06:25:32;67.60;52.80;44.60
35654;PMS1003;21773;50.010;19.972;2023-03-01T06:28:35;67.00;53.67;45.00
35654;PMS1003;21773;50.010;19.972;2023-03-01T06:31:39;66.00;51.00;41.00
35654;PMS1003;21773;50.010;19.972;2023-03-01T06:34:42;68.40;53.40;45.00
35654;PMS1003;21773;50.010;19.972;2023-03-01T06:37:47;66.75;52.00;42.00
35654;PMS1003;21773;50.010;19.972;2023-03-01T06:40:54;68.40;55.00;46.40
35654;PMS1003;21773;50.010;19.972;2023-03-01T06:44:00;67.25;52.25;43.75
35654;PMS1003;21773;50.010;19.972;2023-03-01T06:47:04;65.60;52.00;42.60
35654;PMS1003;21773;50.010;19.972;2023-03-01T06:50:08;70.00;54.25;45.00
35654;PMS1003;21773;50.010;19.972;2023-03-01T06:53:13;65.00;51.40;40.60
35654;PMS1003;21773;50.010;19.972;2023-03-01T06:56:16;66.00;52.00;42.00
35654;PMS1003;21773;50.010;19.972;2023-03-01T06:59:20;69.50;53.00;43.50
35654;PMS1003;21773;50.010;19.972;2023-03-01T07:02:23;68.60;53.20;43.40
35654;PMS1003;21773;50.010;19.972;2023-03-01T07:05:27;69.80;54.80;45.00
35654;PMS1003;21773;50.010;19.972;2023-03-01T07:08:32;68.00;55.00;46.50
35654;PMS1003;21773;50.010;19.972;2023-03-01T07:11:35;67.20;52.80;43.60
35654;PMS1003;21773;50.010;19.972;2023-03-01T07:14:39;71.75;56.75;47.00
35654;PMS1003;21773;50.010;19.972;2023-03-01T07:17:42;66.20;52.00;43.00
35654;PMS1003;21773;50.010;19.972;2023-03-01T07:20:46;70.20;55.20;47.00
35654;PMS1003;21773;50.010;19.972;2023-03-01T07:23:51;63.80;50.60;40.20
35654;PMS1003;21773;50.010;19.972;2023-03-01T07:26:54;63.00;50.40;40.00
35654;PMS1003;21773;50.010;19.972;2023-03-01T07:29:57;64.20;50.00;39.00
35654;PMS1003;21773;50.010;19.972;2023-03-01T07:33:00;61.00;48.00;36.00
35654;PMS1003;21773;50.010;19.972;2023-03-01T07:36:05;58.00;47.00;35.00
35654;PMS1003;21773;50.010;19.972;2023-03-01T07:39:10;60.75;48.00;35.50
35654;PMS1003;21773;50.010;19.972;2023-03-01T07:42:14;65.00;48.20;35.20
35654;PMS1003;21773;50.010;19.972;2023-03-01T07:45:17;62.00;48.20;35.00
35654;PMS1003;21773;50.010;19.972;2023-03-01T07:48:21;60.00;47.00;35.00
35654;PMS1003;21773;50.010;19.972;2023-03-01T07:51:24;55.80;45.40;34.00
35654;PMS1003;21773;50.010;19.972;2023-03-01T07:54:29;57.00;46.00;34.00
35654;PMS1003;21773;50.010;19.972;2023-03-01T07:57:32;53.25;44.00;32.00
35654;PMS1003;21773;50.010;19.972;2023-03-01T08:00:35;56.00;44.00;33.00
35654;PMS1003;21773;50.010;19.972;2023-03-01T08:03:39;56.50;45.00;33.00
35654;PMS1003;21773;50.010;19.972;2023-03-01T08:06:43;56.50;46.00;33.25
35654;PMS1003;21773;50.010;19.972;2023-03-01T08:09:48;56.20;45.00;33.00
35654;PMS1003;21773;50.010;19.972;2023-03-01T08:12:51;56.40;44.00;33.00
35654;PMS1003;21773;50.010;19.972;2023-03-01T08:15:59;56.20;44.20;33.00
35654;PMS1003;21773;50.010;19.972;2023-03-01T08:19:04;55.00;44.00;33.75
35654;PMS1003;21773;50.010;19.972;2023-03-01T08:22:08;58.25;46.25;34.00
35654;PMS1003;21773;50.010;19.972;2023-03-01T08:25:13;57.00;45.00;33.00
35654;PMS1003;21773;50.010;19.972;2023-03-01T08:28:16;55.80;44.00;32.40
35654;PMS1003;21773;50.010;19.972;2023-03-01T08:31:20;56.00;44.00;33.00
35654;PMS1003;21773;50.010;19.972;2023-03-01T08:34:25;54.67;44.00;32.67
35654;PMS1003;21773;50.010;19.972;2023-03-01T08:37:28;52.00;42.80;32.00
35654;PMS1003;21773;50.010;19.972;2023-03-01T08:40:35;49.80;40.00;30.00
35654;PMS1003;21773;50.010;19.972;2023-03-01T08:43:39;49.40;40.40;31.00
35654;PMS1003;21773;50.010;19.972;2023-03-01T08:46:42;52.25;42.50;32.00
35654;PMS1003;21773;50.010;19.972;2023-03-01T08:49:48;51.00;41.00;31.00
35654;PMS1003;21773;50.010;19.972;2023-03-01T08:52:52;49.40;42.00;31.00
35654;PMS1003;21773;50.010;19.972;2023-03-01T08:55:57;45.75;38.00;29.00
35654;PMS1003;21773;50.010;19.972;2023-03-01T08:59:04;39.50;33.00;26.00
35654;PMS1003;21773;50.010;19.972;2023-03-01T09:02:10;45.20;38.00;28.00
35654;PMS1003;21773;50.010;19.972;2023-03-01T09:05:15;49.00;39.75;31.00
35654;PMS1003;21773;50.010;19.972;2023-03-01T09:08:21;45.80;38.00;28.60
35654;PMS1003;21773;50.010;19.972;2023-03-01T09:11:26;49.00;40.00;30.00
35654;PMS1003;21773;50.010;19.972;2023-03-01T09:14:30;46.00;36.50;28.50
35654;PMS1003;21773;50.010;19.972;2023-03-01T09:17:33;39.00;33.00;26.00
35654;PMS1003;21773;50.010;19.972;2023-03-01T09:20:37;39.00;34.60;27.00
35654;PMS1003;21773;50.010;19.972;2023-03-01T09:23:41;39.00;34.20;26.00
35654;PMS1003;21773;50.010;19.972;2023-03-01T09:26:47;38.60;34.60;26.20
35654;PMS1003;21773;50.010;19.972;2023-03-01T09:29:52;38.00;33.00;25.40
35654;PMS1003;21773;50.010;19.972;2023-03-01T09:32:58;41.00;33.00;26.00
35654;PMS1003;21773;50.010;19.972;2023-03-01T09:36:02;36.00;32.00;25.60
35654;PMS1003;21773;50.010;19.972;2023-03-01T09:39:08;33.60;31.60;24.00
35654;PMS1003;21773;50.010;19.972;2023-03-01T09:42:13;35.40;32.00;25.00
35654;PMS1003;21773;50.010;19.972;2023-03-01T09:45:21;35.00;30.00;23.50
35654;PMS1003;21773;50.010;19.972;2023-03-01T09:48:32;35.60;32.00;24.00
35654;PMS1003;21773;50.010;19.972;2023-03-01T09:51:40;35.00;32.00;24.40
35654;PMS1003;21773;50.010;19.972;2023-03-01T09:54:46;34.00;30.00;24.00
35654;PMS1003;21773;50.010;19.972;2023-03-01T09:57:52;32.25;30.00;23.25
35654;PMS1003;21773;50.010;19.972;2023-03-01T10:01:06;35.00;32.00;24.50
35654;PMS1003;21773;50.010;19.972;2023-03-01T10:04:27;32.00;29.00;22.00
35654;PMS1003;21773;50.010;19.972;2023-03-01T10:07:44;27.20;27.00;22.00
35654;PMS1003;21773;50.010;19.972;2023-03-01T10:10:56;26.50;24.00;21.00
35654;PMS1003;21773;50.010;19.972;2023-03-01T10:14:03;31.40;27.40;20.00
35654;PMS1003;21773;50.010;19.972;2023-03-01T10:17:12;27.60;23.60;20.00
35654;PMS1003;21773;50.010;19.972;2023-03-01T10:20:30;31.25;29.00;23.00
35654;PMS1003;21773;50.010;19.972;2023-03-01T10:23:45;33.00;30.00;23.00
35654;PMS1003;21773;50.010;19.972;2023-03-01T10:26:54;32.25;29.75;23.25
35654;PMS1003;21773;50.010;19.972;2023-03-01T10:30:02;29.20;28.00;22.00
35654;PMS1003;21773;50.010;19.972;2023-03-01T10:33:14;30.00;29.00;23.00
35654;PMS1003;21773;50.010;19.972;2023-03-01T10:36:22;33.25;30.00;23.00
35654;PMS1003;21773;50.010;19.972;2023-03-01T10:39:27;27.75;26.00;20.00
35654;PMS1003;21773;50.010;19.972;2023-03-01T10:42:31;29.00;26.80;22.00
35654;PMS1003;21773;50.010;19.972;2023-03-01T10:45:38;34.40;30.00;23.00
35654;PMS1003;21773;50.010;19.972;2023-03-01T10:48:42;28.60;26.60;22.00
35654;PMS1003;21773;50.010;19.972;2023-03-01T10:51:46;28.00;27.00;22.60
35654;PMS1003;21773;50.010;19.972;2023-03-01T10:54:53;29.20;28.00;22.00
35654;PMS1003;21773;50.010;19.972;2023-03-01T10:58:15;31.00;28.00;22.50
35654;PMS1003;21773;50.010;19.972;2023-03-01T11:01:26;29.40;27.40;21.60
35654;PMS1003;21773;50.010;19.972;2023-03-01T11:04:34;31.00;28.40;22.00
35654;PMS1003;21773;50.010;19.972;2023-03-01T11:07:46;29.40;26.40;22.00
35654;PMS1003;21773;50.010;19.972;2023-03-01T11:10:50;32.60;30.00;23.00
35654;PMS1003;21773;50.010;19.972;2023-03-01T11:13:55;31.00;29.00;23.00
35654;PMS1003;21773;50.010;19.972;2023-03-01T11:17:02;34.40;31.20;23.00
35654;PMS1003;21773;50.010;19.972;2023-03-01T11:20:23;37.00;31.00;23.00
35654;PMS1003;21773;50.010;19.972;2023-03-01T11:23:30;37.00;32.00;24.20
35654;PMS1003;21773;50.010;19.972;2023-03-01T11:26:36;43.80;35.20;27.20
35654;PMS1003;21773;50.010;19.972;2023-03-01T11:29:43;40.25;33.50;26.00
35654;PMS1003;21773;50.010;19.972;2023-03-01T11:32:54;37.00;33.00;26.00
35654;PMS1003;21773;50.010;19.972;2023-03-01T11:36:07;37.60;33.00;26.00
35654;PMS1003;21773;50.010;19.972;2023-03-01T11:39:22;41.00;33.50;26.00
35654;PMS1003;21773;50.010;19.972;2023-03-01T11:42:38;38.80;33.00;25.60
35654;PMS1003;21773;50.010;19.972;2023-03-01T11:45:54;42.60;35.00;27.00
35654;PMS1003;21773;50.010;19.972;2023-03-01T11:49:19;41.00;34.40;27.00
35654;PMS1003;21773;50.010;19.972;2023-03-01T11:52:41;40.00;33.00;25.60
35654;PMS1003;21773;50.010;19.972;2023-03-01T11:55:55;39.00;32.60;25.00
35654;PMS1003;21773;50.010;19.972;2023-03-01T12:02:46;33.20;30.00;23.00
35654;PMS1003;21773;50.010;19.972;2023-03-01T12:06:16;35.00;32.00;24.00
35654;PMS1003;21773;50.010;19.972;2023-03-01T12:09:32;35.40;31.00;24.00
35654;PMS1003;21773;50.010;19.972;2023-03-01T12:12:47;36.50;32.00;25.50
35654;PMS1003;21773;50.010;19.972;2023-03-01T12:16:15;36.40;32.00;25.00
35654;PMS1003;21773;50.010;19.972;2023-03-01T12:19:51;35.40;31.40;23.40
35654;PMS1003;21773;50.010;19.972;2023-03-01T12:23:21;38.25;33.00;26.00
35654;PMS1003;21773;50.010;19.972;2023-03-01T12:26:42;34.50;30.50;23.50
35654;PMS1003;21773;50.010;19.972;2023-03-01T12:29:56;35.40;32.00;24.00
35654;PMS1003;21773;50.010;19.972;2023-03-01T12:33:15;39.00;34.00;27.00
35654;PMS1003;21773;50.010;19.972;2023-03-01T12:36:31;39.40;34.00;26.20
35654;PMS1003;21773;50.010;19.972;2023-03-01T12:39:50;40.00;34.40;27.00
35654;PMS1003;21773;50.010;19.972;2023-03-01T12:43:06;42.40;34.80;26.00
35654;PMS1003;21773;50.010;19.972;2023-03-01T12:46:21;39.60;33.00;25.60
35654;PMS1003;21773;50.010;19.972;2023-03-01T12:49:36;41.00;33.00;26.00
35654;PMS1003;21773;50.010;19.972;2023-03-01T12:52:44;39.40;33.00;25.40
35654;PMS1003;21773;50.010;19.972;2023-03-01T12:55:54;38.00;32.00;24.00
35654;PMS1003;21773;50.010;19.972;2023-03-01T12:59:02;33.80;31.00;24.00
35654;PMS1003;21773;50.010;19.972;2023-03-01T13:02:16;38.80;31.80;25.20
35654;PMS1003;21773;50.010;19.972;2023-03-01T13:05:30;40.00;32.50;26.00
35654;PMS1003;21773;50.010;19.972;2023-03-01T13:08:44;40.25;34.50;26.50
35654;PMS1003;21773;50.010;19.972;2023-03-01T13:11:59;37.40;33.00;25.00
35654;PMS1003;21773;50.010;19.972;2023-03-01T13:18:37;44.40;34.60;26.80
35654;PMS1003;21773;50.010;19.972;2023-03-01T13:21:40;34.40;30.60;23.00
35654;PMS1003;21773;50.010;19.972;2023-03-01T13:24:44;38.00;32.50;25.50
35654;PMS1003;21773;50.010;19.972;2023-03-01T13:27:49;35.60;31.00;24.00
35654;PMS1003;21773;50.010;19.972;2023-03-01T13:30:53;29.00;25.60;20.60
35654;PMS1003;21773;50.010;19.972;2023-03-01T13:33:56;31.50;30.00;23.00
35654;PMS1003;21773;50.010;19.972;2023-03-01T13:37:10;30.00;28.00;23.00
35654;PMS1003;21773;50.010;19.972;2023-03-01T13:44:01;35.60;31.40;24.20
35654;PMS1003;21773;50.010;19.972;2023-03-01T13:47:14;34.20;31.20;23.60
35654;PMS1003;21773;50.010;19.972;2023-03-01T13:50:21;35.40;31.40;24.00
35654;PMS1003;21773;50.010;19.972;2023-03-01T13:53:29;34.40;30.00;23.00
35654;PMS1003;21773;50.010;19.972;2023-03-01T13:56:35;31.25;29.75;23.00
35654;PMS1003;21773;50.010;19.972;2023-03-01T13:59:47;28.00;27.00;22.00
35654;PMS1003;21773;50.010;19.972;2023-03-01T14:02:59;29.00;27.80;22.00
35654;PMS1003;21773;50.010;19.972;2023-03-01T14:06:07;31.40;28.00;22.60
35654;PMS1003;21773;50.010;19.972;2023-03-01T14:09:20;25.00;23.00;20.00
35654;PMS1003;21773;50.010;19.972;2023-03-01T14:12:29;30.00;29.00;22.50
35654;PMS1003;21773;50.010;19.972;2023-03-01T14:15:46;33.60;30.00;23.00
35654;PMS1003;21773;50.010;19.972;2023-03-01T14:19:04;33.80;30.60;24.00
35654;PMS1003;21773;50.010;19.972;2023-03-01T14:22:33;32.20;30.00;24.00
35654;PMS1003;21773;50.010;19.972;2023-03-01T14:25:38;27.75;23.00;19.75
35654;PMS1003;21773;50.010;19.972;2023-03-01T14:28:50;31.25;29.25;22.25
35654;PMS1003;21773;50.010;19.972;2023-03-01T14:31:55;32.00;30.00;24.00
35654;PMS1003;21773;50.010;19.972;2023-03-01T14:35:19;29.00;27.00;22.00
35654;PMS1003;21773;50.010;19.972;2023-03-01T14:38:28;31.80;28.20;22.00
35654;PMS1003;21773;50.010;19.972;2023-03-01T14:41:34;28.40;27.00;22.40
35654;PMS1003;21773;50.010;19.972;2023-03-01T14:44:40;29.00;27.50;22.00
35654;PMS1003;21773;50.010;19.972;2023-03-01T14:47:46;26.00;25.00;21.00
35654;PMS1003;21773;50.010;19.972;2023-03-01T14:50:50;30.00;26.50;22.00
35654;PMS1003;21773;50.010;19.972;2023-03-01T14:53:54;29.00;28.00;22.40
35654;PMS1003;21773;50.010;19.972;2023-03-01T14:56:58;26.80;25.60;21.00
35654;PMS1003;21773;50.010;19.972;2023-03-01T15:00:03;27.00;24.60;20.00
35654;PMS1003;21773;50.010;19.972;2023-03-01T15:03:13;28.00;27.00;23.00
35654;PMS1003;21773;50.010;19.972;2023-03-01T15:06:23;26.00;24.00;20.00
35654;PMS1003;21773;50.010;19.972;2023-03-01T15:09:27;27.00;23.00;20.00
35654;PMS1003;21773;50.010;19.972;2023-03-01T15:12:35;29.00;27.00;22.00
35654;PMS1003;21773;50.010;19.972;2023-03-01T15:15:41;27.20;26.00;21.00
35654;PMS1003;21773;50.010;19.972;2023-03-01T15:18:50;29.00;27.40;23.00
35654;PMS1003;21773;50.010;19.972;2023-03-01T15:21:55;25.00;23.50;20.00
35654;PMS1003;21773;50.010;19.972;2023-03-01T15:25:00;26.33;25.00;21.00
35654;PMS1003;21773;50.010;19.972;2023-03-01T15:28:03;26.20;23.80;20.80
35654;PMS1003;21773;50.010;19.972;2023-03-01T15:31:13;28.50;27.00;22.00
35654;PMS1003;21773;50.010;19.972;2023-03-01T15:34:24;31.00;30.00;23.40
35654;PMS1003;21773;50.010;19.972;2023-03-01T15:40:52;35.20;30.80;24.40
35654;PMS1003;21773;50.010;19.972;2023-03-01T15:43:56;30.75;28.00;22.00
35654;PMS1003;21773;50.010;19.972;2023-03-01T15:47:00;27.00;24.00;20.60
35654;PMS1003;21773;50.010;19.972;2023-03-01T15:50:11;29.00;26.00;21.00
35654;PMS1003;21773;50.010;19.972;2023-03-01T15:53:20;31.40;29.40;23.00
35654;PMS1003;21773;50.010;19.972;2023-03-01T15:56:24;32.50;29.50;23.50
35654;PMS1003;21773;50.010;19.972;2023-03-01T15:59:27;33.80;29.40;23.00
35654;PMS1003;21773;50.010;19.972;2023-03-01T16:02:31;32.00;28.00;22.00
35654;PMS1003;21773;50.010;19.972;2023-03-01T16:05:35;31.80;28.80;22.00
35654;PMS1003;21773;50.010;19.972;2023-03-01T16:08:39;33.40;30.00;23.40
35654;PMS1003;21773;50.010;19.972;2023-03-01T16:11:43;31.60;29.00;23.00
35654;PMS1003;21773;50.010;19.972;2023-03-01T16:14:46;32.40;29.80;23.80
35654;PMS1003;21773;50.010;19.972;2023-03-01T16:17:50;32.60;30.00;24.00
35654;PMS1003;21773;50.010;19.972;2023-03-01T16:20:57;34.00;30.60;23.40
35654;PMS1003;21773;50.010;19.972;2023-03-01T16:24:01;35.00;32.00;26.00
35654;PMS1003;21773;50.010;19.972;2023-03-01T16:27:04;35.40;32.00;24.40
35654;PMS1003;21773;50.010;19.972;2023-03-01T16:30:08;33.60;31.00;24.00
35654;PMS1003;21773;50.010;19.972;2023-03-01T16:33:12;32.00;30.00;23.40
35654;PMS1003;21773;50.010;19.972;2023-03-01T16:36:36;32.00;30.00;24.00
35654;PMS1003;21773;50.010;19.972;2023-03-01T16:39:40;34.60;32.00;25.20
35654;PMS1003;21773;50.010;19.972;2023-03-01T16:42:43;35.40;31.00;24.00
35654;PMS1003;21773;50.010;19.972;2023-03-01T16:45:46;36.20;31.80;24.00
35654;PMS1003;21773;50.010;19.972;2023-03-01T16:48:50;36.50;32.25;25.00
35654;PMS1003;21773;50.010;19.972;2023-03-01T16:51:56;35.00;32.00;24.25
35654;PMS1003;21773;50.010;19.972;2023-03-01T16:55:00;36.50;32.00;24.00
35654;PMS1003;21773;50.010;19.972;2023-03-01T16:58:05;39.25;33.50;27.00
35654;PMS1003;21773;50.010;19.972;2023-03-01T17:01:09;28.50;24.50;20.75
35654;PMS1003;21773;50.010;19.972;2023-03-01T17:04:14;33.50;30.00;23.50
35654;PMS1003;21773;50.010;19.972;2023-03-01T17:07:20;35.00;32.00;25.00
35654;PMS1003;21773;50.010;19.972;2023-03-01T17:10:24;34.25;29.50;23.00
35654;PMS1003;21773;50.010;19.972;2023-03-01T17:13:27;32.00;30.00;23.40
35654;PMS1003;21773;50.010;19.972;2023-03-01T17:16:31;33.40;30.00;23.40
35654;PMS1003;21773;50.010;19.972;2023-03-01T17:19:34;32.25;30.00;24.00
35654;PMS1003;21773;50.010;19.972;2023-03-01T17:22:42;36.00;32.60;26.00
35654;PMS1003;21773;50.010;19.972;2023-03-01T17:25:46;36.00;31.20;24.00
35654;PMS1003;21773;50.010;19.972;2023-03-01T17:28:49;27.75;24.75;20.50